sensor_id;sensor_type;location;lat;lon;timestamp;P1;durP1;ratioP1;P2;durP2;ratioP2
67429;SDS011;54298;52.076;5.264;2023-09-19T00:01:06;6.1;;;2.1;;
67429;SDS011;54298;52.076;5.264;2023-09-19T00:02:42;6.6;;;2.1;;
67429;SDS011;54298;52.076;5.264;2023-09-19T00:05:55;7.0;;;1.9;;
67429;SDS011;54298;52.076;5.264;2023-09-19T00:07:33;5.11;;;2.1;;
67429;SDS011;54298;52.076;5.264;2023-09-19T00:09:09;6.2;;;2.21;;
67429;SDS011;54298;52.076;5.264;2023-09-19T00:10:45;4.61;;;2.0;;
67429;SDS011;54298;52.076;5.264;2023-09-19T00:13:57;6.0;;;2.1;;
67429;SDS011;54298;52.076;5.264;2023-09-19T00:15:36;6.5;;;1.9;;
67429;SDS011;54298;52.076;5.264;2023-09-19T00:17:14;6.5;;;2.21;;
67429;SDS011;54298;52.076;5.264;2023-09-19T00:20:27;5.11;;;2.31;;
67429;SDS011;54298;52.076;5.264;2023-09-19T00:22:03;7.9;;;2.0;;
67429;SDS011;54298;52.076;5.264;2023-09-19T00:23:39;5.11;;;1.8;;
67429;SDS011;54298;52.076;5.264;2023-09-19T00:25:15;6.8;;;1.8;;
67429;SDS011;54298;52.076;5.264;2023-09-19T00:28:27;4.61;;;1.6;;
67429;SDS011;54298;52.076;5.264;2023-09-19T00:30:04;8.1;;;1.8;;
67429;SDS011;54298;52.076;5.264;2023-09-19T00:31:42;3.1;;;1.6;;
67429;SDS011;54298;52.076;5.264;2023-09-19T00:34:54;7.3;;;1.9;;
67429;SDS011;54298;52.076;5.264;2023-09-19T00:36:31;4.8;;;1.7;;
67429;SDS011;54298;52.076;5.264;2023-09-19T00:38:07;3.5;;;1.5;;
67429;SDS011;54298;52.076;5.264;2023-09-19T00:41:19;4.0;;;1.8;;
67429;SDS011;54298;52.076;5.264;2023-09-19T00:42:57;6.2;;;1.6;;
67429;SDS011;54298;52.076;5.264;2023-09-19T00:44:33;4.91;;;1.8;;
67429;SDS011;54298;52.076;5.264;2023-09-19T00:47:46;7.0;;;1.8;;
67429;SDS011;54298;52.076;5.264;2023-09-19T00:49:24;6.2;;;1.6;;
67429;SDS011;54298;52.076;5.264;2023-09-19T00:51:02;5.5;;;1.7;;
67429;SDS011;54298;52.076;5.264;2023-09-19T00:52:40;6.2;;;1.5;;
67429;SDS011;54298;52.076;5.264;2023-09-19T00:55:54;6.1;;;1.7;;
67429;SDS011;54298;52.076;5.264;2023-09-19T00:57:31;8.0;;;1.9;;
67429;SDS011;54298;52.076;5.264;2023-09-19T00:59:08;4.41;;;1.8;;
67429;SDS011;54298;52.076;5.264;2023-09-19T01:02:21;3.3;;;1.6;;
67429;SDS011;54298;52.076;5.264;2023-09-19T01:03:57;3.5;;;1.5;;
67429;SDS011;54298;52.076;5.264;2023-09-19T01:05:33;6.6;;;1.9;;
67429;SDS011;54298;52.076;5.264;2023-09-19T01:07:09;3.6;;;1.7;;
67429;SDS011;54298;52.076;5.264;2023-09-19T01:10:22;4.41;;;1.7;;
67429;SDS011;54298;52.076;5.264;2023-09-19T01:11:58;6.2;;;1.8;;
67429;SDS011;54298;52.076;5.264;2023-09-19T01:13:46;5.5;;;1.8;;
67429;SDS011;54298;52.076;5.264;2023-09-19T01:15:37;7.4;;;1.8;;
67429;SDS011;54298;52.076;5.264;2023-09-19T01:19:24;5.8;;;1.7;;
67429;SDS011;54298;52.076;5.264;2023-09-19T01:21:33;6.0;;;1.8;;
67429;SDS011;54298;52.076;5.264;2023-09-19T01:23:22;9.21;;;1.8;;
67429;SDS011;54298;52.076;5.264;2023-09-19T01:25:16;5.4;;;2.21;;
67429;SDS011;54298;52.076;5.264;2023-09-19T01:27:17;4.1;;;1.8;;
67429;SDS011;54298;52.076;5.264;2023-09-19T01:29:17;5.2;;;1.9;;
67429;SDS011;54298;52.076;5.264;2023-09-19T01:31:09;4.61;;;1.9;;
67429;SDS011;54298;52.076;5.264;2023-09-19T01:32:47;7.2;;;2.21;;
67429;SDS011;54298;52.076;5.264;2023-09-19T01:34:25;5.5;;;2.0;;
67429;SDS011;54298;52.076;5.264;2023-09-19T01:37:37;7.3;;;2.0;;
67429;SDS011;54298;52.076;5.264;2023-09-19T01:39:13;7.4;;;1.9;;
67429;SDS011;54298;52.076;5.264;2023-09-19T01:40:52;7.0;;;2.1;;
67429;SDS011;54298;52.076;5.264;2023-09-19T01:42:40;5.2;;;1.9;;
67429;SDS011;54298;52.076;5.264;2023-09-19T01:46:16;5.4;;;1.9;;
67429;SDS011;54298;52.076;5.264;2023-09-19T01:48:02;7.8;;;2.1;;
67429;SDS011;54298;52.076;5.264;2023-09-19T01:49:58;6.5;;;2.1;;
67429;SDS011;54298;52.076;5.264;2023-09-19T01:51:53;6.9;;;2.1;;
67429;SDS011;54298;52.076;5.264;2023-09-19T01:53:38;6.0;;;2.1;;
67429;SDS011;54298;52.076;5.264;2023-09-19T01:55:20;4.5;;;2.0;;
67429;SDS011;54298;52.076;5.264;2023-09-19T01:58:42;9.0;;;2.31;;
67429;SDS011;54298;52.076;5.264;2023-09-19T02:00:23;4.8;;;2.0;;
67429;SDS011;54298;52.076;5.264;2023-09-19T02:02:04;8.6;;;2.4;;
67429;SDS011;54298;52.076;5.264;2023-09-19T02:03:42;6.9;;;2.0;;
67429;SDS011;54298;52.076;5.264;2023-09-19T02:07:00;7.5;;;2.21;;
67429;SDS011;54298;52.076;5.264;2023-09-19T02:08:36;6.8;;;1.8;;
67429;SDS011;54298;52.076;5.264;2023-09-19T02:10:13;3.6;;;1.9;;
67429;SDS011;54298;52.076;5.264;2023-09-19T02:13:25;7.4;;;2.1;;
67429;SDS011;54298;52.076;5.264;2023-09-19T02:15:02;5.4;;;1.9;;
67429;SDS011;54298;52.076;5.264;2023-09-19T02:16:38;5.9;;;1.9;;
67429;SDS011;54298;52.076;5.264;2023-09-19T02:18:14;9.1;;;2.5;;
67429;SDS011;54298;52.076;5.264;2023-09-19T02:21:26;8.71;;;2.6;;
67429;SDS011;54298;52.076;5.264;2023-09-19T02:23:02;7.2;;;2.31;;
67429;SDS011;54298;52.076;5.264;2023-09-19T02:24:39;6.4;;;2.1;;
67429;SDS011;54298;52.076;5.264;2023-09-19T02:27:51;6.4;;;2.1;;
67429;SDS011;54298;52.076;5.264;2023-09-19T02:29:27;5.9;;;2.4;;
67429;SDS011;54298;52.076;5.264;2023-09-19T02:31:04;9.9;;;2.4;;
67429;SDS011;54298;52.076;5.264;2023-09-19T02:34:16;7.9;;;2.0;;
67429;SDS011;54298;52.076;5.264;2023-09-19T02:35:54;8.1;;;2.4;;
67429;SDS011;54298;52.076;5.264;2023-09-19T02:37:31;6.9;;;2.5;;
67429;SDS011;54298;52.076;5.264;2023-09-19T02:39:07;9.9;;;2.8;;
67429;SDS011;54298;52.076;5.264;2023-09-19T02:42:19;8.5;;;2.9;;
67429;SDS011;54298;52.076;5.264;2023-09-19T02:43:55;5.8;;;2.7;;
67429;SDS011;54298;52.076;5.264;2023-09-19T02:45:31;6.7;;;2.31;;
67429;SDS011;54298;52.076;5.264;2023-09-19T02:48:44;9.71;;;2.6;;
67429;SDS011;54298;52.076;5.264;2023-09-19T02:50:20;7.7;;;3.1;;
67429;SDS011;54298;52.076;5.264;2023-09-19T02:51:56;8.31;;;2.5;;
67429;SDS011;54298;52.076;5.264;2023-09-19T02:55:08;9.1;;;2.8;;
67429;SDS011;54298;52.076;5.264;2023-09-19T02:56:44;9.71;;;3.1;;
67429;SDS011;54298;52.076;5.264;2023-09-19T02:58:20;10.0;;;2.9;;
67429;SDS011;54298;52.076;5.264;2023-09-19T03:01:32;7.2;;;2.7;;
67429;SDS011;54298;52.076;5.264;2023-09-19T03:03:08;10.0;;;2.8;;
67429;SDS011;54298;52.076;5.264;2023-09-19T03:04:45;11.8;;;3.0;;
67429;SDS011;54298;52.076;5.264;2023-09-19T03:06:21;9.1;;;2.7;;
67429;SDS011;54298;52.076;5.264;2023-09-19T03:09:33;7.1;;;2.6;;
67429;SDS011;54298;52.076;5.264;2023-09-19T03:11:09;7.3;;;2.8;;
67429;SDS011;54298;52.076;5.264;2023-09-19T03:15:57;8.31;;;2.8;;
67429;SDS011;54298;52.076;5.264;2023-09-19T03:17:33;12.4;;;2.9;;
67429;SDS011;54298;52.076;5.264;2023-09-19T03:19:09;5.5;;;2.5;;
67429;SDS011;54298;52.076;5.264;2023-09-19T03:22:28;9.71;;;2.7;;
67429;SDS011;54298;52.076;5.264;2023-09-19T03:24:04;8.6;;;2.9;;
67429;SDS011;54298;52.076;5.264;2023-09-19T03:25:40;6.6;;;2.7;;
67429;SDS011;54298;52.076;5.264;2023-09-19T03:27:16;11.0;;;2.6;;
67429;SDS011;54298;52.076;5.264;2023-09-19T03:30:28;8.5;;;2.7;;
67429;SDS011;54298;52.076;5.264;2023-09-19T03:32:05;10.9;;;2.8;;
67429;SDS011;54298;52.076;5.264;2023-09-19T03:33:41;7.5;;;2.5;;
67429;SDS011;54298;52.076;5.264;2023-09-19T03:36:55;14.8;;;3.1;;
67429;SDS011;54298;52.076;5.264;2023-09-19T03:38:31;8.4;;;2.5;;
67429;SDS011;54298;52.076;5.264;2023-09-19T03:40:08;7.7;;;2.6;;
67429;SDS011;54298;52.076;5.264;2023-09-19T03:43:21;7.4;;;2.31;;
67429;SDS011;54298;52.076;5.264;2023-09-19T03:44:57;10.0;;;3.3;;
67429;SDS011;54298;52.076;5.264;2023-09-19T03:46:33;8.6;;;2.4;;
67429;SDS011;54298;52.076;5.264;2023-09-19T03:48:09;5.0;;;2.5;;
67429;SDS011;54298;52.076;5.264;2023-09-19T03:51:21;10.21;;;2.5;;
67429;SDS011;54298;52.076;5.264;2023-09-19T03:52:58;6.6;;;2.6;;
67429;SDS011;54298;52.076;5.264;2023-09-19T03:54:34;9.1;;;2.5;;
67429;SDS011;54298;52.076;5.264;2023-09-19T03:57:47;8.0;;;2.6;;
67429;SDS011;54298;52.076;5.264;2023-09-19T03:59:24;9.6;;;2.5;;
67429;SDS011;54298;52.076;5.264;2023-09-19T04:01:00;8.0;;;2.4;;
67429;SDS011;54298;52.076;5.264;2023-09-19T04:04:13;4.8;;;2.5;;
67429;SDS011;54298;52.076;5.264;2023-09-19T04:05:49;6.9;;;2.31;;
67429;SDS011;54298;52.076;5.264;2023-09-19T04:07:25;7.7;;;3.5;;
67429;SDS011;54298;52.076;5.264;2023-09-19T04:10:40;5.8;;;2.6;;
67429;SDS011;54298;52.076;5.264;2023-09-19T04:12:18;8.5;;;2.6;;
67429;SDS011;54298;52.076;5.264;2023-09-19T04:13:54;8.6;;;2.31;;
67429;SDS011;54298;52.076;5.264;2023-09-19T04:15:30;12.6;;;2.7;;
67429;SDS011;54298;52.076;5.264;2023-09-19T04:18:42;8.31;;;2.31;;
67429;SDS011;54298;52.076;5.264;2023-09-19T04:20:18;6.2;;;2.6;;
67429;SDS011;54298;52.076;5.264;2023-09-19T04:21:54;8.5;;;2.7;;
67429;SDS011;54298;52.076;5.264;2023-09-19T04:25:07;6.6;;;2.5;;
67429;SDS011;54298;52.076;5.264;2023-09-19T04:26:43;9.81;;;2.4;;
67429;SDS011;54298;52.076;5.264;2023-09-19T04:28:19;6.4;;;2.5;;
67429;SDS011;54298;52.076;5.264;2023-09-19T04:31:31;7.9;;;3.0;;
67429;SDS011;54298;52.076;5.264;2023-09-19T04:33:07;7.8;;;2.6;;
67429;SDS011;54298;52.076;5.264;2023-09-19T04:34:43;4.5;;;2.21;;
67429;SDS011;54298;52.076;5.264;2023-09-19T04:36:19;7.7;;;2.9;;
67429;SDS011;54298;52.076;5.264;2023-09-19T04:39:32;5.11;;;2.31;;
67429;SDS011;54298;52.076;5.264;2023-09-19T04:41:08;8.2;;;2.6;;
67429;SDS011;54298;52.076;5.264;2023-09-19T04:42:44;13.3;;;3.1;;
67429;SDS011;54298;52.076;5.264;2023-09-19T04:45:56;5.6;;;2.1;;
67429;SDS011;54298;52.076;5.264;2023-09-19T04:47:32;11.0;;;2.5;;
67429;SDS011;54298;52.076;5.264;2023-09-19T04:49:08;10.5;;;2.6;;
67429;SDS011;54298;52.076;5.264;2023-09-19T04:52:20;9.81;;;2.7;;
67429;SDS011;54298;52.076;5.264;2023-09-19T04:53:56;9.71;;;2.9;;
67429;SDS011;54298;52.076;5.264;2023-09-19T04:55:33;8.31;;;3.7;;
67429;SDS011;54298;52.076;5.264;2023-09-19T04:58:45;10.9;;;3.6;;
67429;SDS011;54298;52.076;5.264;2023-09-19T05:00:21;8.2;;;3.1;;
67429;SDS011;54298;52.076;5.264;2023-09-19T05:01:58;9.81;;;2.8;;
67429;SDS011;54298;52.076;5.264;2023-09-19T05:03:34;6.6;;;2.6;;
67429;SDS011;54298;52.076;5.264;2023-09-19T05:06:47;6.2;;;2.31;;
67429;SDS011;54298;52.076;5.264;2023-09-19T05:08:23;5.9;;;2.5;;
67429;SDS011;54298;52.076;5.264;2023-09-19T05:09:59;10.1;;;2.9;;
67429;SDS011;54298;52.076;5.264;2023-09-19T05:13:12;12.1;;;2.9;;
67429;SDS011;54298;52.076;5.264;2023-09-19T05:14:48;8.5;;;2.5;;
67429;SDS011;54298;52.076;5.264;2023-09-19T05:16:24;7.1;;;2.7;;
67429;SDS011;54298;52.076;5.264;2023-09-19T05:19:36;12.5;;;3.2;;
67429;SDS011;54298;52.076;5.264;2023-09-19T05:21:12;10.3;;;3.6;;
67429;SDS011;54298;52.076;5.264;2023-09-19T05:22:48;8.4;;;2.8;;
67429;SDS011;54298;52.076;5.264;2023-09-19T05:24:24;7.5;;;2.4;;
67429;SDS011;54298;52.076;5.264;2023-09-19T05:27:36;9.21;;;3.3;;
67429;SDS011;54298;52.076;5.264;2023-09-19T05:29:12;9.31;;;3.6;;
67429;SDS011;54298;52.076;5.264;2023-09-19T05:30:48;12.8;;;3.2;;
67429;SDS011;54298;52.076;5.264;2023-09-19T05:34:00;6.5;;;2.4;;
67429;SDS011;54298;52.076;5.264;2023-09-19T05:35:36;8.31;;;2.5;;
67429;SDS011;54298;52.076;5.264;2023-09-19T05:37:12;8.9;;;2.6;;
67429;SDS011;54298;52.076;5.264;2023-09-19T05:40:24;13.9;;;4.5;;
67429;SDS011;54298;52.076;5.264;2023-09-19T05:42:02;15.1;;;6.1;;
67429;SDS011;54298;52.076;5.264;2023-09-19T05:43:38;14.6;;;4.8;;
67429;SDS011;54298;52.076;5.264;2023-09-19T05:46:50;8.31;;;3.7;;
67429;SDS011;54298;52.076;5.264;2023-09-19T05:48:26;10.0;;;3.6;;
67429;SDS011;54298;52.076;5.264;2023-09-19T05:50:02;13.4;;;5.8;;
67429;SDS011;54298;52.076;5.264;2023-09-19T05:51:38;14.6;;;6.0;;
67429;SDS011;54298;52.076;5.264;2023-09-19T05:54:50;17.41;;;5.7;;
67429;SDS011;54298;52.076;5.264;2023-09-19T05:56:26;12.2;;;5.3;;
67429;SDS011;54298;52.076;5.264;2023-09-19T05:58:03;8.1;;;3.7;;
67429;SDS011;54298;52.076;5.264;2023-09-19T06:01:15;9.6;;;3.2;;
67429;SDS011;54298;52.076;5.264;2023-09-19T06:02:51;10.3;;;2.7;;
67429;SDS011;54298;52.076;5.264;2023-09-19T06:04:27;6.9;;;2.4;;
67429;SDS011;54298;52.076;5.264;2023-09-19T06:07:39;9.9;;;3.0;;
67429;SDS011;54298;52.076;5.264;2023-09-19T06:09:15;12.7;;;3.0;;
67429;SDS011;54298;52.076;5.264;2023-09-19T06:10:51;12.4;;;3.6;;
67429;SDS011;54298;52.076;5.264;2023-09-19T06:14:04;7.2;;;2.8;;
67429;SDS011;54298;52.076;5.264;2023-09-19T06:15:40;8.4;;;3.2;;
67429;SDS011;54298;52.076;5.264;2023-09-19T06:17:16;12.2;;;3.9;;
67429;SDS011;54298;52.076;5.264;2023-09-19T06:18:52;10.9;;;4.2;;
67429;SDS011;54298;52.076;5.264;2023-09-19T06:22:04;9.1;;;3.3;;
67429;SDS011;54298;52.076;5.264;2023-09-19T06:23:40;10.4;;;3.8;;
67429;SDS011;54298;52.076;5.264;2023-09-19T06:25:16;8.81;;;3.0;;
67429;SDS011;54298;52.076;5.264;2023-09-19T06:28:29;13.9;;;3.3;;
67429;SDS011;54298;52.076;5.264;2023-09-19T06:30:06;8.71;;;3.1;;
67429;SDS011;54298;52.076;5.264;2023-09-19T06:31:43;10.3;;;3.4;;
67429;SDS011;54298;52.076;5.264;2023-09-19T06:34:55;12.1;;;3.0;;
67429;SDS011;54298;52.076;5.264;2023-09-19T06:36:31;8.71;;;2.8;;
67429;SDS011;54298;52.076;5.264;2023-09-19T06:38:07;10.6;;;3.2;;
67429;SDS011;54298;52.076;5.264;2023-09-19T06:39:43;11.9;;;3.7;;
67429;SDS011;54298;52.076;5.264;2023-09-19T06:42:55;13.5;;;3.3;;
67429;SDS011;54298;52.076;5.264;2023-09-19T06:44:31;8.9;;;3.0;;
67429;SDS011;54298;52.076;5.264;2023-09-19T06:46:07;6.5;;;2.8;;
67429;SDS011;54298;52.076;5.264;2023-09-19T06:49:20;8.6;;;2.8;;
67429;SDS011;54298;52.076;5.264;2023-09-19T06:50:57;11.4;;;3.2;;
67429;SDS011;54298;52.076;5.264;2023-09-19T06:52:33;7.9;;;2.8;;
67429;SDS011;54298;52.076;5.264;2023-09-19T06:55:45;10.21;;;3.4;;
67429;SDS011;54298;52.076;5.264;2023-09-19T06:57:21;9.4;;;3.0;;
67429;SDS011;54298;52.076;5.264;2023-09-19T06:58:57;11.3;;;2.9;;
67429;SDS011;54298;52.076;5.264;2023-09-19T07:02:09;9.31;;;3.1;;
67429;SDS011;54298;52.076;5.264;2023-09-19T07:03:46;8.9;;;3.2;;
67429;SDS011;54298;52.076;5.264;2023-09-19T07:05:22;9.0;;;3.0;;
67429;SDS011;54298;52.076;5.264;2023-09-19T07:06:58;9.71;;;3.3;;
67429;SDS011;54298;52.076;5.264;2023-09-19T07:10:10;13.5;;;3.9;;
67429;SDS011;54298;52.076;5.264;2023-09-19T07:11:46;15.0;;;6.7;;
67429;SDS011;54298;52.076;5.264;2023-09-19T07:13:22;8.9;;;3.1;;
67429;SDS011;54298;52.076;5.264;2023-09-19T07:16:34;15.3;;;3.7;;
67429;SDS011;54298;52.076;5.264;2023-09-19T07:18:10;6.4;;;3.1;;
67429;SDS011;54298;52.076;5.264;2023-09-19T07:19:47;12.6;;;3.8;;
67429;SDS011;54298;52.076;5.264;2023-09-19T07:22:59;11.8;;;2.9;;
67429;SDS011;54298;52.076;5.264;2023-09-19T07:24:35;10.5;;;3.3;;
67429;SDS011;54298;52.076;5.264;2023-09-19T07:26:11;13.4;;;3.2;;
67429;SDS011;54298;52.076;5.264;2023-09-19T07:27:47;9.5;;;3.0;;
67429;SDS011;54298;52.076;5.264;2023-09-19T07:31:01;10.9;;;3.5;;
67429;SDS011;54298;52.076;5.264;2023-09-19T07:32:38;9.5;;;2.8;;
67429;SDS011;54298;52.076;5.264;2023-09-19T07:34:13;13.3;;;2.9;;
67429;SDS011;54298;52.076;5.264;2023-09-19T07:37:26;6.4;;;2.9;;
67429;SDS011;54298;52.076;5.264;2023-09-19T07:39:02;8.71;;;3.1;;
67429;SDS011;54298;52.076;5.264;2023-09-19T07:40:38;12.8;;;4.3;;
67429;SDS011;54298;52.076;5.264;2023-09-19T07:43:51;17.2;;;5.6;;
67429;SDS011;54298;52.076;5.264;2023-09-19T07:45:27;12.3;;;3.2;;
67429;SDS011;54298;52.076;5.264;2023-09-19T07:47:03;10.8;;;3.3;;
67429;SDS011;54298;52.076;5.264;2023-09-19T07:50:16;8.81;;;3.4;;
67429;SDS011;54298;52.076;5.264;2023-09-19T07:51:53;13.5;;;4.2;;
67429;SDS011;54298;52.076;5.264;2023-09-19T07:53:29;11.5;;;4.3;;
67429;SDS011;54298;52.076;5.264;2023-09-19T07:55:05;12.6;;;3.7;;
67429;SDS011;54298;52.076;5.264;2023-09-19T07:58:18;11.4;;;3.1;;
67429;SDS011;54298;52.076;5.264;2023-09-19T07:59:54;9.4;;;3.3;;
67429;SDS011;54298;52.076;5.264;2023-09-19T08:01:30;13.1;;;3.4;;
67429;SDS011;54298;52.076;5.264;2023-09-19T08:04:42;9.5;;;2.9;;
67429;SDS011;54298;52.076;5.264;2023-09-19T08:06:18;7.7;;;2.9;;
67429;SDS011;54298;52.076;5.264;2023-09-19T08:07:55;14.5;;;3.1;;
67429;SDS011;54298;52.076;5.264;2023-09-19T08:11:07;9.4;;;3.8;;
67429;SDS011;54298;52.076;5.264;2023-09-19T08:12:43;9.0;;;3.1;;
67429;SDS011;54298;52.076;5.264;2023-09-19T08:14:19;8.5;;;3.3;;
67429;SDS011;54298;52.076;5.264;2023-09-19T08:15:55;13.9;;;2.9;;
67429;SDS011;54298;52.076;5.264;2023-09-19T08:19:09;10.21;;;3.4;;
67429;SDS011;54298;52.076;5.264;2023-09-19T08:20:48;11.3;;;4.41;;
67429;SDS011;54298;52.076;5.264;2023-09-19T08:22:25;15.9;;;4.7;;
67429;SDS011;54298;52.076;5.264;2023-09-19T08:25:38;11.2;;;5.11;;
67429;SDS011;54298;52.076;5.264;2023-09-19T08:27:14;11.5;;;4.2;;
67429;SDS011;54298;52.076;5.264;2023-09-19T08:28:50;14.5;;;3.6;;
67429;SDS011;54298;52.076;5.264;2023-09-19T08:32:02;14.5;;;3.6;;
67429;SDS011;54298;52.076;5.264;2023-09-19T08:33:39;8.5;;;3.6;;
67429;SDS011;54298;52.076;5.264;2023-09-19T08:35:15;12.8;;;3.9;;
67429;SDS011;54298;52.076;5.264;2023-09-19T08:36:51;13.3;;;4.1;;
67429;SDS011;54298;52.076;5.264;2023-09-19T08:41:42;11.7;;;4.0;;
67429;SDS011;54298;52.076;5.264;2023-09-19T08:43:18;12.9;;;3.3;;
67429;SDS011;54298;52.076;5.264;2023-09-19T08:46:35;12.1;;;5.11;;
67429;SDS011;54298;52.076;5.264;2023-09-19T08:48:20;12.9;;;5.11;;
67429;SDS011;54298;52.076;5.264;2023-09-19T08:50:03;8.31;;;3.0;;
67429;SDS011;54298;52.076;5.264;2023-09-19T08:51:46;12.6;;;4.7;;
67429;SDS011;54298;52.076;5.264;2023-09-19T08:53:36;13.7;;;5.5;;
67429;SDS011;54298;52.076;5.264;2023-09-19T08:56:54;14.1;;;3.9;;
67429;SDS011;54298;52.076;5.264;2023-09-19T08:58:38;15.4;;;3.2;;
67429;SDS011;54298;52.076;5.264;2023-09-19T09:00:27;14.9;;;4.5;;
67429;SDS011;54298;52.076;5.264;2023-09-19T09:02:04;10.5;;;3.5;;
67429;SDS011;54298;52.076;5.264;2023-09-19T09:05:23;14.0;;;3.8;;
67429;SDS011;54298;52.076;5.264;2023-09-19T09:07:00;8.6;;;3.5;;
67429;SDS011;54298;52.076;5.264;2023-09-19T09:08:38;13.3;;;3.6;;
67429;SDS011;54298;52.076;5.264;2023-09-19T09:11:51;13.4;;;3.7;;
67429;SDS011;54298;52.076;5.264;2023-09-19T09:13:29;8.5;;;3.1;;
67429;SDS011;54298;52.076;5.264;2023-09-19T09:15:06;12.9;;;3.0;;
67429;SDS011;54298;52.076;5.264;2023-09-19T09:16:43;8.6;;;2.7;;
67429;SDS011;54298;52.076;5.264;2023-09-19T09:19:55;7.3;;;3.3;;
67429;SDS011;54298;52.076;5.264;2023-09-19T09:21:31;13.1;;;3.6;;
67429;SDS011;54298;52.076;5.264;2023-09-19T09:23:07;12.3;;;3.2;;
67429;SDS011;54298;52.076;5.264;2023-09-19T09:26:43;12.3;;;3.3;;
67429;SDS011;54298;52.076;5.264;2023-09-19T09:28:20;12.7;;;3.1;;
67429;SDS011;54298;52.076;5.264;2023-09-19T09:29:58;9.1;;;3.7;;
67429;SDS011;54298;52.076;5.264;2023-09-19T09:31:34;11.6;;;3.2;;
67429;SDS011;54298;52.076;5.264;2023-09-19T09:34:49;15.2;;;3.8;;
67429;SDS011;54298;52.076;5.264;2023-09-19T09:36:36;11.8;;;3.5;;
67429;SDS011;54298;52.076;5.264;2023-09-19T09:38:14;10.6;;;3.5;;
67429;SDS011;54298;52.076;5.264;2023-09-19T09:39:52;9.81;;;3.4;;
67429;SDS011;54298;52.076;5.264;2023-09-19T09:43:16;13.1;;;4.3;;
67429;SDS011;54298;52.076;5.264;2023-09-19T09:45:19;10.3;;;3.7;;
67429;SDS011;54298;52.076;5.264;2023-09-19T09:46:56;13.8;;;4.5;;
67429;SDS011;54298;52.076;5.264;2023-09-19T09:48:32;9.31;;;3.7;;
67429;SDS011;54298;52.076;5.264;2023-09-19T09:50:08;13.1;;;5.11;;
67429;SDS011;54298;52.076;5.264;2023-09-19T09:53:27;10.9;;;4.41;;
67429;SDS011;54298;52.076;5.264;2023-09-19T09:55:03;14.0;;;5.0;;
67429;SDS011;54298;52.076;5.264;2023-09-19T09:56:55;16.8;;;5.2;;
67429;SDS011;54298;52.076;5.264;2023-09-19T09:58:33;12.5;;;4.1;;
67429;SDS011;54298;52.076;5.264;2023-09-19T10:01:47;14.7;;;4.5;;
67429;SDS011;54298;52.076;5.264;2023-09-19T10:03:30;16.4;;;3.1;;
67429;SDS011;54298;52.076;5.264;2023-09-19T10:05:11;14.3;;;3.9;;
67429;SDS011;54298;52.076;5.264;2023-09-19T10:06:49;13.5;;;3.5;;
67429;SDS011;54298;52.076;5.264;2023-09-19T10:10:03;9.6;;;3.3;;
67429;SDS011;54298;52.076;5.264;2023-09-19T10:11:41;8.4;;;3.3;;
67429;SDS011;54298;52.076;5.264;2023-09-19T10:13:19;10.8;;;3.2;;
67429;SDS011;54298;52.076;5.264;2023-09-19T10:16:36;8.81;;;2.7;;
67429;SDS011;54298;52.076;5.264;2023-09-19T10:18:16;7.7;;;3.0;;
67429;SDS011;54298;52.076;5.264;2023-09-19T10:19:56;7.1;;;2.8;;
67429;SDS011;54298;52.076;5.264;2023-09-19T10:21:32;11.5;;;2.9;;
67429;SDS011;54298;52.076;5.264;2023-09-19T10:24:47;10.0;;;3.5;;
67429;SDS011;54298;52.076;5.264;2023-09-19T10:26:26;7.0;;;2.6;;
67429;SDS011;54298;52.076;5.264;2023-09-19T10:28:03;7.0;;;2.6;;
67429;SDS011;54298;52.076;5.264;2023-09-19T10:31:21;8.31;;;2.5;;
67429;SDS011;54298;52.076;5.264;2023-09-19T10:33:00;9.5;;;3.2;;
67429;SDS011;54298;52.076;5.264;2023-09-19T10:34:38;8.0;;;2.9;;
67429;SDS011;54298;52.076;5.264;2023-09-19T10:36:17;14.2;;;4.7;;
67429;SDS011;54298;52.076;5.264;2023-09-19T10:39:32;10.7;;;3.8;;
67429;SDS011;54298;52.076;5.264;2023-09-19T10:41:08;12.9;;;2.6;;
67429;SDS011;54298;52.076;5.264;2023-09-19T10:42:48;7.1;;;2.5;;
67429;SDS011;54298;52.076;5.264;2023-09-19T10:44:26;10.6;;;5.11;;
67429;SDS011;54298;52.076;5.264;2023-09-19T10:47:44;11.1;;;3.2;;
67429;SDS011;54298;52.076;5.264;2023-09-19T10:49:20;8.6;;;3.0;;
67429;SDS011;54298;52.076;5.264;2023-09-19T10:50:58;10.1;;;2.4;;
67429;SDS011;54298;52.076;5.264;2023-09-19T10:54:18;10.1;;;2.5;;
67429;SDS011;54298;52.076;5.264;2023-09-19T10:55:59;11.4;;;2.7;;
67429;SDS011;54298;52.076;5.264;2023-09-19T10:57:37;5.7;;;1.8;;
67429;SDS011;54298;52.076;5.264;2023-09-19T10:59:14;8.4;;;2.8;;
67429;SDS011;54298;52.076;5.264;2023-09-19T11:02:29;7.8;;;2.0;;
67429;SDS011;54298;52.076;5.264;2023-09-19T11:04:20;6.3;;;2.5;;
67429;SDS011;54298;52.076;5.264;2023-09-19T11:06:00;11.2;;;2.31;;
67429;SDS011;54298;52.076;5.264;2023-09-19T11:07:56;7.2;;;2.4;;
67429;SDS011;54298;52.076;5.264;2023-09-19T11:09:49;10.5;;;2.4;;
67429;SDS011;54298;52.076;5.264;2023-09-19T11:13:23;14.4;;;2.6;;
67429;SDS011;54298;52.076;5.264;2023-09-19T11:15:01;14.4;;;2.6;;
67429;SDS011;54298;52.076;5.264;2023-09-19T11:16:37;7.5;;;2.1;;
67429;SDS011;54298;52.076;5.264;2023-09-19T11:18:50;9.21;;;2.21;;
67429;SDS011;54298;52.076;5.264;2023-09-19T11:20:28;7.0;;;2.7;;
67429;SDS011;54298;52.076;5.264;2023-09-19T11:23:40;8.6;;;2.21;;
67429;SDS011;54298;52.076;5.264;2023-09-19T11:25:48;6.4;;;2.6;;
67429;SDS011;54298;52.076;5.264;2023-09-19T11:27:25;8.81;;;2.7;;
67429;SDS011;54298;52.076;5.264;2023-09-19T11:29:24;6.2;;;2.8;;
67429;SDS011;54298;52.076;5.264;2023-09-19T11:31:40;14.7;;;4.41;;
67429;SDS011;54298;52.076;5.264;2023-09-19T11:33:19;6.5;;;2.21;;
67429;SDS011;54298;52.076;5.264;2023-09-19T11:35:06;9.4;;;3.0;;
67429;SDS011;54298;52.076;5.264;2023-09-19T11:38:19;6.0;;;2.21;;
67429;SDS011;54298;52.076;5.264;2023-09-19T11:40:34;5.5;;;2.1;;
67429;SDS011;54298;52.076;5.264;2023-09-19T11:42:41;9.21;;;1.9;;
67429;SDS011;54298;52.076;5.264;2023-09-19T11:44:34;8.31;;;2.5;;
67429;SDS011;54298;52.076;5.264;2023-09-19T11:46:10;5.7;;;2.1;;
67429;SDS011;54298;52.076;5.264;2023-09-19T11:47:46;3.5;;;1.3;;
67429;SDS011;54298;52.076;5.264;2023-09-19T11:49:26;6.5;;;1.9;;
67429;SDS011;54298;52.076;5.264;2023-09-19T11:52:57;2.7;;;1.3;;
67429;SDS011;54298;52.076;5.264;2023-09-19T11:54:34;2.7;;;1.3;;
67429;SDS011;54298;52.076;5.264;2023-09-19T11:56:11;4.3;;;1.8;;
67429;SDS011;54298;52.076;5.264;2023-09-19T11:57:47;8.4;;;1.7;;
67429;SDS011;54298;52.076;5.264;2023-09-19T12:01:02;9.5;;;2.1;;
67429;SDS011;54298;52.076;5.264;2023-09-19T12:02:41;6.9;;;2.21;;
67429;SDS011;54298;52.076;5.264;2023-09-19T12:04:32;5.8;;;2.21;;
67429;SDS011;54298;52.076;5.264;2023-09-19T12:06:11;6.0;;;2.21;;
67429;SDS011;54298;52.076;5.264;2023-09-19T12:09:24;6.0;;;1.7;;
67429;SDS011;54298;52.076;5.264;2023-09-19T12:11:01;7.5;;;1.6;;
67429;SDS011;54298;52.076;5.264;2023-09-19T12:12:37;7.5;;;1.4;;
67429;SDS011;54298;52.076;5.264;2023-09-19T12:15:58;13.3;;;1.9;;
67429;SDS011;54298;52.076;5.264;2023-09-19T12:17:35;4.41;;;1.4;;
67429;SDS011;54298;52.076;5.264;2023-09-19T12:19:19;4.5;;;1.4;;
67429;SDS011;54298;52.076;5.264;2023-09-19T12:20:57;4.0;;;1.5;;
67429;SDS011;54298;52.076;5.264;2023-09-19T12:24:14;6.6;;;1.6;;
67429;SDS011;54298;52.076;5.264;2023-09-19T12:25:51;2.7;;;1.3;;
67429;SDS011;54298;52.076;5.264;2023-09-19T12:27:27;3.8;;;1.6;;
67429;SDS011;54298;52.076;5.264;2023-09-19T12:29:03;3.1;;;1.0;;
67429;SDS011;54298;52.076;5.264;2023-09-19T12:32:15;4.61;;;1.5;;
67429;SDS011;54298;52.076;5.264;2023-09-19T12:33:53;7.3;;;1.6;;
67429;SDS011;54298;52.076;5.264;2023-09-19T12:35:29;6.7;;;2.0;;
67429;SDS011;54298;52.076;5.264;2023-09-19T12:38:47;4.1;;;2.0;;
67429;SDS011;54298;52.076;5.264;2023-09-19T12:40:24;5.9;;;2.21;;
67429;SDS011;54298;52.076;5.264;2023-09-19T12:42:00;5.5;;;1.5;;
67429;SDS011;54298;52.076;5.264;2023-09-19T12:45:12;5.5;;;1.6;;
67429;SDS011;54298;52.076;5.264;2023-09-19T12:46:49;5.7;;;1.5;;
67429;SDS011;54298;52.076;5.264;2023-09-19T12:48:25;5.2;;;1.7;;
67429;SDS011;54298;52.076;5.264;2023-09-19T12:50:06;5.0;;;1.8;;
67429;SDS011;54298;52.076;5.264;2023-09-19T12:53:24;3.0;;;1.11;;
67429;SDS011;54298;52.076;5.264;2023-09-19T12:55:00;3.7;;;1.5;;
67429;SDS011;54298;52.076;5.264;2023-09-19T12:56:40;3.7;;;1.4;;